sensor_id;sensor_type;location;lat;lon;timestamp;pressure;altitude;pressure_sealevel;temperature;humidity
45541;BME280;31265;49.680;8.608;2022-12-29T00:01:17;99948.13;;;9.33;100.00
45541;BME280;31265;49.680;8.608;2022-12-29T00:03:48;99959.38;;;9.35;100.00
45541;BME280;31265;49.680;8.608;2022-12-29T00:06:17;99958.25;;;9.38;100.00
45541;BME280;31265;49.680;8.608;2022-12-29T00:08:47;99957.13;;;9.41;100.00
45541;BME280;31265;49.680;8.608;2022-12-29T00:11:16;99953.06;;;9.42;100.00
45541;BME280;31265;49.680;8.608;2022-12-29T00:13:46;99950.81;;;9.48;100.00
45541;BME280;31265;49.680;8.608;2022-12-29T00:16:33;99956.34;;;9.48;100.00
45541;BME280;31265;49.680;8.608;2022-12-29T00:19:04;99950.19;;;9.58;100.00
45541;BME280;31265;49.680;8.608;2022-12-29T00:21:33;99954.47;;;9.51;100.00
45541;BME280;31265;49.680;8.608;2022-12-29T00:24:22;99949.72;;;9.44;100.00
45541;BME280;31265;49.680;8.608;2022-12-29T00:27:09;99950.81;;;9.48;100.00
45541;BME280;31265;49.680;8.608;2022-12-29T00:29:56;99951.47;;;9.57;100.00
45541;BME280;31265;49.680;8.608;2022-12-29T00:32:43;99955.72;;;9.58;100.00
45541;BME280;31265;49.680;8.608;2022-12-29T00:35:31;99948.88;;;9.59;100.00
45541;BME280;31265;49.680;8.608;2022-12-29T00:38:03;99947.44;;;9.58;100.00
45541;BME280;31265;49.680;8.608;2022-12-29T00:40:50;99939.84;;;9.58;100.00
45541;BME280;31265;49.680;8.608;2022-12-29T00:43:36;99940.75;;;9.61;100.00
45541;BME280;31265;49.680;8.608;2022-12-29T00:46:21;99933.75;;;9.60;100.00
45541;BME280;31265;49.680;8.608;2022-12-29T00:48:50;99939.34;;;9.52;100.00
45541;BME280;31265;49.680;8.608;2022-12-29T00:51:38;99940.03;;;9.60;100.00
45541;BME280;31265;49.680;8.608;2022-12-29T00:54:08;99935.38;;;9.63;100.00
45541;BME280;31265;49.680;8.608;2022-12-29T00:56:36;99931.41;;;9.74;100.00
45541;BME280;31265;49.680;8.608;2022-12-29T00:59:06;99938.50;;;9.67;100.00
45541;BME280;31265;49.680;8.608;2022-12-29T01:01:36;99940.19;;;9.87;100.00
45541;BME280;31265;49.680;8.608;2022-12-29T01:04:05;99936.47;;;10.10;100.00
45541;BME280;31265;49.680;8.608;2022-12-29T01:06:35;99926.88;;;10.28;100.00
45541;BME280;31265;49.680;8.608;2022-12-29T01:09:06;99923.19;;;10.26;100.00
45541;BME280;31265;49.680;8.608;2022-12-29T01:11:53;99922.03;;;10.37;100.00
45541;BME280;31265;49.680;8.608;2022-12-29T01:14:26;99913.69;;;10.37;100.00
45541;BME280;31265;49.680;8.608;2022-12-29T01:16:57;99919.63;;;10.50;100.00
45541;BME280;31265;49.680;8.608;2022-12-29T01:19:27;99916.78;;;10.41;100.00
45541;BME280;31265;49.680;8.608;2022-12-29T01:21:56;99904.78;;;10.38;100.00
45541;BME280;31265;49.680;8.608;2022-12-29T01:24:26;99915.75;;;10.36;100.00
45541;BME280;31265;49.680;8.608;2022-12-29T01:26:56;99909.78;;;10.40;100.00
45541;BME280;31265;49.680;8.608;2022-12-29T01:29:25;99917.13;;;10.45;100.00
45541;BME280;31265;49.680;8.608;2022-12-29T01:31:54;99923.47;;;10.55;100.00
45541;BME280;31265;49.680;8.608;2022-12-29T01:34:24;99922.19;;;10.56;100.00
45541;BME280;31265;49.680;8.608;2022-12-29T01:36:53;99926.16;;;10.63;100.00
45541;BME280;31265;49.680;8.608;2022-12-29T01:39:24;99926.31;;;10.82;100.00
45541;BME280;31265;49.680;8.608;2022-12-29T01:41:54;99922.16;;;10.73;100.00
45541;BME280;31265;49.680;8.608;2022-12-29T01:47:27;99932.78;;;10.67;100.00
45541;BME280;31265;49.680;8.608;2022-12-29T01:49:58;99923.38;;;10.80;100.00
45541;BME280;31265;49.680;8.608;2022-12-29T01:52:29;99924.88;;;10.64;100.00
45541;BME280;31265;49.680;8.608;2022-12-29T01:55:01;99904.47;;;10.69;100.00
45541;BME280;31265;49.680;8.608;2022-12-29T01:57:34;99919.06;;;10.69;100.00
45541;BME280;31265;49.680;8.608;2022-12-29T02:00:07;99926.06;;;10.70;100.00
45541;BME280;31265;49.680;8.608;2022-12-29T02:02:40;99924.06;;;10.71;100.00
45541;BME280;31265;49.680;8.608;2022-12-29T02:05:13;99923.47;;;10.72;100.00
45541;BME280;31265;49.680;8.608;2022-12-29T02:07:44;99918.50;;;10.71;100.00
45541;BME280;31265;49.680;8.608;2022-12-29T02:10:13;99915.47;;;10.76;100.00
45541;BME280;31265;49.680;8.608;2022-12-29T02:12:44;99911.47;;;10.70;100.00
45541;BME280;31265;49.680;8.608;2022-12-29T02:15:14;99909.41;;;10.70;100.00
45541;BME280;31265;49.680;8.608;2022-12-29T02:17:50;99913.97;;;10.75;100.00
45541;BME280;31265;49.680;8.608;2022-12-29T02:20:30;99915.28;;;10.74;100.00
45541;BME280;31265;49.680;8.608;2022-12-29T02:23:15;99915.72;;;10.71;100.00
45541;BME280;31265;49.680;8.608;2022-12-29T02:25:57;99918.63;;;10.73;100.00
45541;BME280;31265;49.680;8.608;2022-12-29T02:28:39;99915.19;;;10.82;100.00
45541;BME280;31265;49.680;8.608;2022-12-29T02:31:20;99909.75;;;10.74;100.00
45541;BME280;31265;49.680;8.608;2022-12-29T02:33:59;99914.72;;;10.76;100.00
45541;BME280;31265;49.680;8.608;2022-12-29T02:36:37;99912.06;;;10.68;100.00
45541;BME280;31265;49.680;8.608;2022-12-29T02:39:10;99892.94;;;10.72;100.00
45541;BME280;31265;49.680;8.608;2022-12-29T02:41:46;99898.91;;;10.69;100.00
45541;BME280;31265;49.680;8.608;2022-12-29T02:44:24;99888.28;;;10.75;100.00
45541;BME280;31265;49.680;8.608;2022-12-29T02:46:56;99888.28;;;10.75;100.00
45541;BME280;31265;49.680;8.608;2022-12-29T02:49:29;99885.88;;;10.89;100.00
45541;BME280;31265;49.680;8.608;2022-12-29T02:52:06;99890.44;;;10.94;100.00
45541;BME280;31265;49.680;8.608;2022-12-29T02:54:39;99876.69;;;10.86;100.00
45541;BME280;31265;49.680;8.608;2022-12-29T02:57:13;99880.50;;;10.91;100.00
45541;BME280;31265;49.680;8.608;2022-12-29T02:59:44;99885.00;;;10.86;100.00
45541;BME280;31265;49.680;8.608;2022-12-29T03:05:05;99864.41;;;10.89;100.00
45541;BME280;31265;49.680;8.608;2022-12-29T03:07:43;99867.63;;;10.86;100.00
45541;BME280;31265;49.680;8.608;2022-12-29T03:10:19;99864.56;;;10.91;100.00
45541;BME280;31265;49.680;8.608;2022-12-29T03:12:54;99854.03;;;10.90;100.00
45541;BME280;31265;49.680;8.608;2022-12-29T03:15:46;99859.19;;;10.93;100.00
45541;BME280;31265;49.680;8.608;2022-12-29T03:18:41;99847.94;;;10.91;100.00
45541;BME280;31265;49.680;8.608;2022-12-29T03:21:17;99854.38;;;10.94;100.00
45541;BME280;31265;49.680;8.608;2022-12-29T03:23:48;99847.75;;;10.89;100.00
45541;BME280;31265;49.680;8.608;2022-12-29T03:26:17;99849.69;;;10.96;100.00
45541;BME280;31265;49.680;8.608;2022-12-29T03:28:51;99832.84;;;10.85;100.00
45541;BME280;31265;49.680;8.608;2022-12-29T03:31:24;99837.09;;;10.86;100.00
45541;BME280;31265;49.680;8.608;2022-12-29T03:33:53;99826.81;;;10.79;100.00
45541;BME280;31265;49.680;8.608;2022-12-29T03:36:26;99821.47;;;10.90;100.00
45541;BME280;31265;49.680;8.608;2022-12-29T03:38:58;99831.06;;;10.80;100.00
45541;BME280;31265;49.680;8.608;2022-12-29T03:41:28;99830.78;;;10.85;100.00
45541;BME280;31265;49.680;8.608;2022-12-29T03:44:00;99840.00;;;10.88;100.00
45541;BME280;31265;49.680;8.608;2022-12-29T03:46:29;99837.22;;;10.88;100.00
45541;BME280;31265;49.680;8.608;2022-12-29T03:48:57;99838.38;;;10.85;100.00
45541;BME280;31265;49.680;8.608;2022-12-29T03:51:27;99834.00;;;10.82;100.00
45541;BME280;31265;49.680;8.608;2022-12-29T03:53:56;99834.09;;;11.01;100.00
45541;BME280;31265;49.680;8.608;2022-12-29T03:56:27;99818.84;;;10.92;100.00
45541;BME280;31265;49.680;8.608;2022-12-29T03:58:55;99834.94;;;10.94;100.00
45541;BME280;31265;49.680;8.608;2022-12-29T04:01:30;99829.66;;;10.88;100.00
45541;BME280;31265;49.680;8.608;2022-12-29T04:04:01;99829.50;;;10.86;100.00
45541;BME280;31265;49.680;8.608;2022-12-29T04:09:05;99830.94;;;10.87;100.00
45541;BME280;31265;49.680;8.608;2022-12-29T04:11:39;99826.59;;;10.94;100.00
45541;BME280;31265;49.680;8.608;2022-12-29T04:14:08;99826.06;;;11.05;100.00
45541;BME280;31265;49.680;8.608;2022-12-29T04:16:36;99826.16;;;10.97;100.00
45541;BME280;31265;49.680;8.608;2022-12-29T04:19:07;99827.53;;;11.06;100.00
45541;BME280;31265;49.680;8.608;2022-12-29T04:21:36;99827.84;;;11.10;100.00
45541;BME280;31265;49.680;8.608;2022-12-29T04:24:07;99826.38;;;11.09;100.00
45541;BME280;31265;49.680;8.608;2022-12-29T04:26:39;99821.81;;;11.04;100.00
45541;BME280;31265;49.680;8.608;2022-12-29T04:29:26;99819.00;;;10.94;100.00
45541;BME280;31265;49.680;8.608;2022-12-29T04:32:15;99830.38;;;10.89;100.00
45541;BME280;31265;49.680;8.608;2022-12-29T04:34:52;99824.63;;;10.77;100.00
45541;BME280;31265;49.680;8.608;2022-12-29T04:37:21;99822.41;;;10.75;100.00
45541;BME280;31265;49.680;8.608;2022-12-29T04:39:50;99814.06;;;10.66;100.00
45541;BME280;31265;49.680;8.608;2022-12-29T04:42:19;99823.66;;;10.65;100.00
45541;BME280;31265;49.680;8.608;2022-12-29T04:44:49;99820.31;;;10.66;100.00
45541;BME280;31265;49.680;8.608;2022-12-29T04:47:39;99827.03;;;10.63;100.00
45541;BME280;31265;49.680;8.608;2022-12-29T04:50:27;99820.31;;;10.66;100.00
45541;BME280;31265;49.680;8.608;2022-12-29T04:53:14;99817.78;;;10.61;100.00
45541;BME280;31265;49.680;8.608;2022-12-29T04:55:47;99812.94;;;10.51;100.00
45541;BME280;31265;49.680;8.608;2022-12-29T04:58:16;99815.00;;;10.51;100.00
45541;BME280;31265;49.680;8.608;2022-12-29T05:00:49;99824.03;;;10.51;100.00
45541;BME280;31265;49.680;8.608;2022-12-29T05:03:20;99825.81;;;10.57;100.00
45541;BME280;31265;49.680;8.608;2022-12-29T05:05:49;99817.97;;;10.63;100.00
45541;BME280;31265;49.680;8.608;2022-12-29T05:08:21;99827.66;;;10.71;100.00
45541;BME280;31265;49.680;8.608;2022-12-29T05:10:58;99826.19;;;10.70;100.00
45541;BME280;31265;49.680;8.608;2022-12-29T05:13:26;99818.94;;;10.58;100.00
45541;BME280;31265;49.680;8.608;2022-12-29T05:15:57;99825.56;;;10.62;100.00
45541;BME280;31265;49.680;8.608;2022-12-29T05:18:26;99827.34;;;10.67;100.00
45541;BME280;31265;49.680;8.608;2022-12-29T05:20:55;99830.94;;;10.60;100.00
45541;BME280;31265;49.680;8.608;2022-12-29T05:23:27;99818.38;;;10.59;100.00
45541;BME280;31265;49.680;8.608;2022-12-29T05:26:01;99827.88;;;10.56;100.00
45541;BME280;31265;49.680;8.608;2022-12-29T05:28:39;99825.66;;;10.54;100.00
45541;BME280;31265;49.680;8.608;2022-12-29T05:31:12;99820.94;;;10.74;100.00
45541;BME280;31265;49.680;8.608;2022-12-29T05:33:42;99820.72;;;10.63;100.00
45541;BME280;31265;49.680;8.608;2022-12-29T05:36:14;99828.06;;;10.68;100.00
45541;BME280;31265;49.680;8.608;2022-12-29T05:38:48;99830.09;;;10.67;100.00
45541;BME280;31265;49.680;8.608;2022-12-29T05:41:19;99837.19;;;10.78;100.00
45541;BME280;31265;49.680;8.608;2022-12-29T05:43:59;99835.66;;;10.94;100.00
45541;BME280;31265;49.680;8.608;2022-12-29T05:46:38;99837.22;;;10.88;100.00
45541;BME280;31265;49.680;8.608;2022-12-29T05:49:06;99824.78;;;10.79;100.00
45541;BME280;31265;49.680;8.608;2022-12-29T05:51:51;99814.84;;;10.76;100.00
45541;BME280;31265;49.680;8.608;2022-12-29T05:54:21;99823.78;;;10.84;100.00
45541;BME280;31265;49.680;8.608;2022-12-29T05:56:51;99831.78;;;10.80;100.00
45541;BME280;31265;49.680;8.608;2022-12-29T05:59:23;99827.88;;;10.83;100.00
45541;BME280;31265;49.680;8.608;2022-12-29T06:01:53;99823.63;;;10.82;100.00
45541;BME280;31265;49.680;8.608;2022-12-29T06:04:23;99819.63;;;10.75;100.00
45541;BME280;31265;49.680;8.608;2022-12-29T06:06:51;99817.44;;;10.74;100.00
45541;BME280;31265;49.680;8.608;2022-12-29T06:09:26;99811.16;;;10.73;100.00
45541;BME280;31265;49.680;8.608;2022-12-29T06:11:56;99816.44;;;10.79;100.00
45541;BME280;31265;49.680;8.608;2022-12-29T06:14:25;99804.19;;;10.82;100.00
45541;BME280;31265;49.680;8.608;2022-12-29T06:16:58;99807.13;;;10.84;100.00
45541;BME280;31265;49.680;8.608;2022-12-29T06:19:28;99807.56;;;10.81;100.00
45541;BME280;31265;49.680;8.608;2022-12-29T06:21:56;99813.69;;;10.79;100.00
45541;BME280;31265;49.680;8.608;2022-12-29T06:24:27;99815.88;;;10.81;100.00
45541;BME280;31265;49.680;8.608;2022-12-29T06:26:57;99812.25;;;10.88;100.00
45541;BME280;31265;49.680;8.608;2022-12-29T06:29:26;99803.16;;;10.77;100.00
45541;BME280;31265;49.680;8.608;2022-12-29T06:31:57;99806.09;;;10.80;100.00
45541;BME280;31265;49.680;8.608;2022-12-29T06:34:29;99817.34;;;10.82;100.00
45541;BME280;31265;49.680;8.608;2022-12-29T06:36:57;99809.00;;;10.82;100.00
45541;BME280;31265;49.680;8.608;2022-12-29T06:39:26;99810.91;;;10.79;100.00
45541;BME280;31265;49.680;8.608;2022-12-29T06:42:06;99820.84;;;10.82;100.00
45541;BME280;31265;49.680;8.608;2022-12-29T06:44:43;99811.34;;;10.85;100.00
45541;BME280;31265;49.680;8.608;2022-12-29T06:47:11;99801.84;;;10.79;100.00
45541;BME280;31265;49.680;8.608;2022-12-29T06:49:39;99812.47;;;10.72;100.00
45541;BME280;31265;49.680;8.608;2022-12-29T06:52:07;99810.59;;;10.75;100.00
45541;BME280;31265;49.680;8.608;2022-12-29T06:54:39;99801.06;;;10.68;100.00
45541;BME280;31265;49.680;8.608;2022-12-29T06:57:11;99792.19;;;10.80;100.00
45541;BME280;31265;49.680;8.608;2022-12-29T06:59:41;99794.09;;;10.77;100.00
45541;BME280;31265;49.680;8.608;2022-12-29T07:02:10;99791.22;;;10.85;100.00
45541;BME280;31265;49.680;8.608;2022-12-29T07:04:38;99793.53;;;10.79;100.00
45541;BME280;31265;49.680;8.608;2022-12-29T07:07:06;99795.25;;;10.74;100.00
45541;BME280;31265;49.680;8.608;2022-12-29T07:09:35;99792.38;;;10.82;100.00
45541;BME280;31265;49.680;8.608;2022-12-29T07:12:03;99787.34;;;10.70;100.00
45541;BME280;31265;49.680;8.608;2022-12-29T07:14:33;99787.03;;;10.66;100.00
45541;BME280;31265;49.680;8.608;2022-12-29T07:17:08;99782.66;;;10.63;100.00
45541;BME280;31265;49.680;8.608;2022-12-29T07:19:37;99796.66;;;10.65;100.00
45541;BME280;31265;49.680;8.608;2022-12-29T07:22:05;99794.75;;;10.68;100.00
45541;BME280;31265;49.680;8.608;2022-12-29T07:24:33;99790.22;;;10.63;100.00
45541;BME280;31265;49.680;8.608;2022-12-29T07:27:02;99796.75;;;10.58;100.00
45541;BME280;31265;49.680;8.608;2022-12-29T07:29:33;99800.13;;;10.56;100.00
45541;BME280;31265;49.680;8.608;2022-12-29T07:32:01;99798.97;;;10.59;100.00
45541;BME280;31265;49.680;8.608;2022-12-29T07:34:29;99800.25;;;10.58;100.00
45541;BME280;31265;49.680;8.608;2022-12-29T07:36:57;99811.06;;;10.54;100.00
45541;BME280;31265;49.680;8.608;2022-12-29T07:39:26;99808.34;;;10.64;100.00
45541;BME280;31265;49.680;8.608;2022-12-29T07:41:54;99802.53;;;10.69;100.00
45541;BME280;31265;49.680;8.608;2022-12-29T07:44:38;99811.84;;;10.64;100.00
45541;BME280;31265;49.680;8.608;2022-12-29T07:47:19;99813.00;;;10.61;100.00
45541;BME280;31265;49.680;8.608;2022-12-29T07:49:47;99814.94;;;10.68;100.00
45541;BME280;31265;49.680;8.608;2022-12-29T07:52:17;99808.59;;;10.58;100.00
45541;BME280;31265;49.680;8.608;2022-12-29T07:54:48;99812.34;;;10.53;100.00
45541;BME280;31265;49.680;8.608;2022-12-29T07:57:16;99818.13;;;10.65;100.00
45541;BME280;31265;49.680;8.608;2022-12-29T07:59:46;99817.06;;;10.60;100.00
45541;BME280;31265;49.680;8.608;2022-12-29T08:02:14;99826.72;;;10.59;100.00
45541;BME280;31265;49.680;8.608;2022-12-29T08:04:42;99826.38;;;10.55;100.00
45541;BME280;31265;49.680;8.608;2022-12-29T08:07:10;99822.88;;;10.54;100.00
45541;BME280;31265;49.680;8.608;2022-12-29T08:09:39;99834.88;;;10.57;100.00
45541;BME280;31265;49.680;8.608;2022-12-29T08:12:08;99832.41;;;10.61;100.00
45541;BME280;31265;49.680;8.608;2022-12-29T08:14:37;99830.94;;;10.60;100.00
45541;BME280;31265;49.680;8.608;2022-12-29T08:17:07;99850.94;;;10.59;100.00
45541;BME280;31265;49.680;8.608;2022-12-29T08:19:38;99845.88;;;10.65;100.00
45541;BME280;31265;49.680;8.608;2022-12-29T08:22:06;99857.34;;;10.79;100.00
45541;BME280;31265;49.680;8.608;2022-12-29T08:24:35;99855.56;;;10.73;100.00
45541;BME280;31265;49.680;8.608;2022-12-29T08:27:04;99853.34;;;10.72;100.00
45541;BME280;31265;49.680;8.608;2022-12-29T08:29:45;99856.09;;;10.89;100.00
45541;BME280;31265;49.680;8.608;2022-12-29T08:32:15;99851.53;;;10.84;100.00
45541;BME280;31265;49.680;8.608;2022-12-29T08:34:43;99854.75;;;10.81;100.00
45541;BME280;31265;49.680;8.608;2022-12-29T08:37:12;99856.34;;;10.84;100.00
45541;BME280;31265;49.680;8.608;2022-12-29T08:39:40;99868.28;;;10.76;100.00
45541;BME280;31265;49.680;8.608;2022-12-29T08:42:09;99862.75;;;10.76;100.00
45541;BME280;31265;49.680;8.608;2022-12-29T08:44:39;99860.69;;;10.77;100.00
45541;BME280;31265;49.680;8.608;2022-12-29T08:47:08;99858.09;;;10.79;100.00
45541;BME280;31265;49.680;8.608;2022-12-29T08:50:51;99870.22;;;10.84;100.00
45541;BME280;31265;49.680;8.608;2022-12-29T08:53:19;99865.69;;;10.79;100.00
45541;BME280;31265;49.680;8.608;2022-12-29T08:55:55;99863.06;;;10.81;100.00
45541;BME280;31265;49.680;8.608;2022-12-29T08:58:37;99858.13;;;10.89;100.00
45541;BME280;31265;49.680;8.608;2022-12-29T09:01:06;99854.75;;;10.90;100.00
45541;BME280;31265;49.680;8.608;2022-12-29T09:03:35;99861.25;;;10.93;100.00
45541;BME280;31265;49.680;8.608;2022-12-29T09:06:25;99859.28;;;10.86;100.00
45541;BME280;31265;49.680;8.608;2022-12-29T09:08:54;99859.75;;;10.92;100.00
45541;BME280;31265;49.680;8.608;2022-12-29T09:11:24;99865.63;;;10.96;100.00
45541;BME280;31265;49.680;8.608;2022-12-29T09:13:54;99869.84;;;10.97;100.00
45541;BME280;31265;49.680;8.608;2022-12-29T09:16:27;99866.69;;;11.01;100.00
45541;BME280;31265;49.680;8.608;2022-12-29T09:18:56;99882.44;;;10.98;100.00
45541;BME280;31265;49.680;8.608;2022-12-29T09:21:29;99886.69;;;10.99;100.00
45541;BME280;31265;49.680;8.608;2022-12-29T09:23:58;99891.72;;;11.10;100.00
45541;BME280;31265;49.680;8.608;2022-12-29T09:26:33;99878.50;;;11.01;100.00
45541;BME280;31265;49.680;8.608;2022-12-29T09:29:06;99892.69;;;11.05;100.00
45541;BME280;31265;49.680;8.608;2022-12-29T09:31:37;99883.47;;;11.03;100.00
45541;BME280;31265;49.680;8.608;2022-12-29T09:34:06;99887.13;;;11.05;100.00
45541;BME280;31265;49.680;8.608;2022-12-29T09:36:36;99884.34;;;11.05;100.00
45541;BME280;31265;49.680;8.608;2022-12-29T09:39:04;99889.88;;;11.23;100.00
45541;BME280;31265;49.680;8.608;2022-12-29T09:41:36;99888.72;;;11.26;100.00
45541;BME280;31265;49.680;8.608;2022-12-29T09:44:13;99888.59;;;11.33;100.00
45541;BME280;31265;49.680;8.608;2022-12-29T09:46:49;99901.00;;;11.32;100.00
45541;BME280;31265;49.680;8.608;2022-12-29T09:49:25;99895.28;;;11.57;100.00
45541;BME280;31265;49.680;8.608;2022-12-29T09:52:00;99908.28;;;11.55;100.00
45541;BME280;31265;49.680;8.608;2022-12-29T09:54:39;99901.75;;;11.70;100.00
45541;BME280;31265;49.680;8.608;2022-12-29T09:57:21;99903.97;;;11.81;100.00
45541;BME280;31265;49.680;8.608;2022-12-29T09:59:55;99898.47;;;11.91;100.00
45541;BME280;31265;49.680;8.608;2022-12-29T10:02:32;99912.81;;;11.97;100.00
45541;BME280;31265;49.680;8.608;2022-12-29T10:05:09;99925.72;;;12.02;100.00
45541;BME280;31265;49.680;8.608;2022-12-29T10:07:49;99915.78;;;12.28;100.00
45541;BME280;31265;49.680;8.608;2022-12-29T10:10:28;99928.97;;;12.37;100.00
45541;BME280;31265;49.680;8.608;2022-12-29T10:13:06;99942.00;;;12.44;100.00
45541;BME280;31265;49.680;8.608;2022-12-29T10:15:46;99928.69;;;12.53;100.00
45541;BME280;31265;49.680;8.608;2022-12-29T10:18:36;99916.50;;;12.67;100.00
45541;BME280;31265;49.680;8.608;2022-12-29T10:21:08;99918.25;;;12.73;100.00
45541;BME280;31265;49.680;8.608;2022-12-29T10:23:50;99925.88;;;12.72;100.00
45541;BME280;31265;49.680;8.608;2022-12-29T10:26:22;99919.84;;;12.85;100.00
45541;BME280;31265;49.680;8.608;2022-12-29T10:28:54;99925.72;;;12.99;100.00
45541;BME280;31265;49.680;8.608;2022-12-29T10:31:25;99933.47;;;13.01;100.00
45541;BME280;31265;49.680;8.608;2022-12-29T10:34:00;99931.59;;;12.84;100.00
45541;BME280;31265;49.680;8.608;2022-12-29T10:36:34;99930.00;;;12.61;100.00
45541;BME280;31265;49.680;8.608;2022-12-29T10:39:13;99925.16;;;12.52;100.00
45541;BME280;31265;49.680;8.608;2022-12-29T10:41:49;99924.72;;;12.46;100.00
45541;BME280;31265;49.680;8.608;2022-12-29T10:44:20;99928.50;;;12.31;100.00
45541;BME280;31265;49.680;8.608;2022-12-29T10:46:51;99929.53;;;12.26;100.00
45541;BME280;31265;49.680;8.608;2022-12-29T10:49:24;99918.69;;;12.11;100.00
45541;BME280;31265;49.680;8.608;2022-12-29T10:51:58;99913.28;;;12.13;100.00
45541;BME280;31265;49.680;8.608;2022-12-29T10:54:44;99919.41;;;12.01;100.00
45541;BME280;31265;49.680;8.608;2022-12-29T10:57:22;99921.44;;;12.01;100.00
45541;BME280;31265;49.680;8.608;2022-12-29T10:59:53;99931.41;;;11.94;100.00
45541;BME280;31265;49.680;8.608;2022-12-29T11:02:43;99942.41;;;12.02;100.00
45541;BME280;31265;49.680;8.608;2022-12-29T11:05:25;99931.09;;;11.90;100.00
45541;BME280;31265;49.680;8.608;2022-12-29T11:08:00;99928.38;;;11.73;100.00
45541;BME280;31265;49.680;8.608;2022-12-29T11:10:36;99937.72;;;11.68;100.00
45541;BME280;31265;49.680;8.608;2022-12-29T11:13:12;99927.66;;;11.35;100.00
45541;BME280;31265;49.680;8.608;2022-12-29T11:15:45;99928.75;;;10.95;100.00
45541;BME280;31265;49.680;8.608;2022-12-29T11:18:22;99931.69;;;10.80;100.00
45541;BME280;31265;49.680;8.608;2022-12-29T11:20:53;99949.41;;;10.67;100.00
45541;BME280;31265;49.680;8.608;2022-12-29T11:23:25;99961.03;;;10.56;100.00
45541;BME280;31265;49.680;8.608;2022-12-29T11:26:16;99947.97;;;10.31;100.00
45541;BME280;31265;49.680;8.608;2022-12-29T11:28:47;99961.53;;;10.20;100.00
45541;BME280;31265;49.680;8.608;2022-12-29T11:31:21;99945.06;;;10.22;100.00
45541;BME280;31265;49.680;8.608;2022-12-29T11:33:50;99949.34;;;10.40;100.00
45541;BME280;31265;49.680;8.608;2022-12-29T11:36:20;99961.84;;;10.49;100.00
45541;BME280;31265;49.680;8.608;2022-12-29T11:38:52;99963.47;;;10.69;100.00
45541;BME280;31265;49.680;8.608;2022-12-29T11:41:25;99961.53;;;11.07;100.00
45541;BME280;31265;49.680;8.608;2022-12-29T11:43:58;99967.59;;;11.50;100.00
45541;BME280;31265;49.680;8.608;2022-12-29T11:46:30;99972.06;;;11.62;100.00
45541;BME280;31265;49.680;8.608;2022-12-29T11:49:01;99973.41;;;11.71;100.00
45541;BME280;31265;49.680;8.608;2022-12-29T11:51:37;99971.59;;;11.56;100.00
45541;BME280;31265;49.680;8.608;2022-12-29T11:54:11;99974.16;;;11.45;100.00
45541;BME280;31265;49.680;8.608;2022-12-29T11:56:44;99971.59;;;11.56;100.00
45541;BME280;31265;49.680;8.608;2022-12-29T11:59:36;99974.31;;;11.19;100.00
45541;BME280;31265;49.680;8.608;2022-12-29T12:02:31;99979.88;;;11.19;100.00
45541;BME280;31265;49.680;8.608;2022-12-29T12:05:22;99978.84;;;10.97;100.00
45541;BME280;31265;49.680;8.608;2022-12-29T12:07:57;99972.91;;;11.01;100.00
45541;BME280;31265;49.680;8.608;2022-12-29T12:10:31;99965.19;;;11.09;100.00
45541;BME280;31265;49.680;8.608;2022-12-29T12:13:16;99963.31;;;11.12;100.00
45541;BME280;31265;49.680;8.608;2022-12-29T12:15:51;99956.81;;;11.27;100.00
45541;BME280;31265;49.680;8.608;2022-12-29T12:18:33;99972.75;;;11.26;100.00
45541;BME280;31265;49.680;8.608;2022-12-29T12:21:13;99969.97;;;11.26;100.00
45541;BME280;31265;49.680;8.608;2022-12-29T12:24:10;99965.94;;;11.37;100.00
45541;BME280;31265;49.680;8.608;2022-12-29T12:26:55;99955.00;;;11.39;100.00
45541;BME280;31265;49.680;8.608;2022-12-29T12:29:34;99960.75;;;11.51;100.00
45541;BME280;31265;49.680;8.608;2022-12-29T12:32:11;99964.31;;;11.61;100.00
45541;BME280;31265;49.680;8.608;2022-12-29T12:34:44;99962.03;;;11.77;100.00
45541;BME280;31265;49.680;8.608;2022-12-29T12:37:33;99943.47;;;11.79;100.00
45541;BME280;31265;49.680;8.608;2022-12-29T12:40:20;99952.66;;;11.72;100.00
45541;BME280;31265;49.680;8.608;2022-12-29T12:43:01;99950.41;;;11.88;100.00
45541;BME280;31265;49.680;8.608;2022-12-29T12:45:53;99945.16;;;11.92;100.00
45541;BME280;31265;49.680;8.608;2022-12-29T12:48:43;99945.44;;;11.96;100.00
45541;BME280;31265;49.680;8.608;2022-12-29T12:51:25;99939.91;;;12.06;100.00
45541;BME280;31265;49.680;8.608;2022-12-29T12:54:09;99928.41;;;11.82;100.00
45541;BME280;31265;49.680;8.608;2022-12-29T12:56:55;99930.75;;;11.86;100.00
45541;BME280;31265;49.680;8.608;2022-12-29T12:59:42;99928.56;;;11.84;100.00
45541;BME280;31265;49.680;8.608;2022-12-29T13:02:39;99928.63;;;11.57;100.00
45541;BME280;31265;49.680;8.608;2022-12-29T13:05:38;99926.69;;;11.50;100.00
45541;BME280;31265;49.680;8.608;2022-12-29T13:08:34;99927.69;;;11.45;100.00
45541;BME280;31265;49.680;8.608;2022-12-29T13:11:13;99915.06;;;11.71;100.00
45541;BME280;31265;49.680;8.608;2022-12-29T13:13:59;99913.84;;;11.65;100.00
45541;BME280;31265;49.680;8.608;2022-12-29T13:16:37;99917.50;;;11.57;100.00
45541;BME280;31265;49.680;8.608;2022-12-29T13:19:15;99915.50;;;11.68;100.00
45541;BME280;31265;49.680;8.608;2022-12-29T13:21:55;99922.75;;;11.53;100.00
45541;BME280;31265;49.680;8.608;2022-12-29T13:24:43;99928.31;;;11.53;100.00
45541;BME280;31265;49.680;8.608;2022-12-29T13:27:19;99930.75;;;11.49;100.00
45541;BME280;31265;49.680;8.608;2022-12-29T13:29:59;99932.38;;;11.43;100.00
45541;BME280;31265;49.680;8.608;2022-12-29T13:32:40;99928.91;;;11.61;100.00
45541;BME280;31265;49.680;8.608;2022-12-29T13:35:25;99923.66;;;11.66;100.00
45541;BME280;31265;49.680;8.608;2022-12-29T13:38:04;99931.25;;;11.55;100.00